sensor_id;sensor_type;location;lat;lon;timestamp;pressure;altitude;pressure_sealevel;temperature;humidity
53908;BME280;40469;47.998;7.794;2023-02-22T00:00:07;98867.78;;;6.41;100.00
53908;BME280;40469;47.998;7.794;2023-02-22T00:02:43;98864.34;;;6.47;100.00
53908;BME280;40469;47.998;7.794;2023-02-22T00:05:09;98870.41;;;6.48;100.00
53908;BME280;40469;47.998;7.794;2023-02-22T00:07:34;98861.75;;;6.45;100.00
53908;BME280;40469;47.998;7.794;2023-02-22T00:09:59;98867.81;;;6.48;100.00
53908;BME280;40469;47.998;7.794;2023-02-22T00:12:25;98861.75;;;6.45;100.00
53908;BME280;40469;47.998;7.794;2023-02-22T00:14:53;98875.41;;;6.17;100.00
53908;BME280;40469;47.998;7.794;2023-02-22T00:17:18;98876.88;;;5.85;100.00
53908;BME280;40469;47.998;7.794;2023-02-22T00:19:44;98882.56;;;5.43;100.00
53908;BME280;40469;47.998;7.794;2023-02-22T00:22:09;98880.72;;;5.28;100.00
53908;BME280;40469;47.998;7.794;2023-02-22T00:24:34;98883.97;;;5.11;100.00
53908;BME280;40469;47.998;7.794;2023-02-22T00:27:00;98884.88;;;5.17;100.00
53908;BME280;40469;47.998;7.794;2023-02-22T00:29:27;98875.44;;;5.17;100.00
53908;BME280;40469;47.998;7.794;2023-02-22T00:31:53;98866.72;;;5.09;100.00
53908;BME280;40469;47.998;7.794;2023-02-22T00:34:18;98868.47;;;5.13;100.00
53908;BME280;40469;47.998;7.794;2023-02-22T00:36:44;98865.97;;;5.24;100.00
53908;BME280;40469;47.998;7.794;2023-02-22T00:39:10;98862.56;;;5.25;100.00
53908;BME280;40469;47.998;7.794;2023-02-22T00:41:36;98866.09;;;5.33;100.00
53908;BME280;40469;47.998;7.794;2023-02-22T00:44:01;98862.59;;;5.31;100.00
53908;BME280;40469;47.998;7.794;2023-02-22T00:46:27;98860.91;;;5.31;100.00
53908;BME280;40469;47.998;7.794;2023-02-22T00:48:52;98856.56;;;5.30;100.00
53908;BME280;40469;47.998;7.794;2023-02-22T00:51:18;98860.03;;;5.34;100.00
53908;BME280;40469;47.998;7.794;2023-02-22T00:53:43;98854.03;;;5.35;100.00
53908;BME280;40469;47.998;7.794;2023-02-22T00:56:09;98856.63;;;5.38;100.00
53908;BME280;40469;47.998;7.794;2023-02-22T00:58:35;98855.72;;;5.35;100.00
53908;BME280;40469;47.998;7.794;2023-02-22T01:01:00;98857.31;;;5.17;100.00
53908;BME280;40469;47.998;7.794;2023-02-22T01:03:26;98855.72;;;5.30;100.00
53908;BME280;40469;47.998;7.794;2023-02-22T01:05:51;98854.84;;;5.31;100.00
53908;BME280;40469;47.998;7.794;2023-02-22T01:08:16;98847.19;;;5.40;100.00
53908;BME280;40469;47.998;7.794;2023-02-22T01:10:42;98846.31;;;5.41;100.00
53908;BME280;40469;47.998;7.794;2023-02-22T01:13:07;98843.69;;;5.37;100.00
53908;BME280;40469;47.998;7.794;2023-02-22T01:15:33;98842.69;;;5.21;100.00
53908;BME280;40469;47.998;7.794;2023-02-22T01:17:59;98843.53;;;5.21;100.00
53908;BME280;40469;47.998;7.794;2023-02-22T01:20:28;98841.81;;;5.23;100.00
53908;BME280;40469;47.998;7.794;2023-02-22T01:22:54;98843.56;;;5.24;100.00
53908;BME280;40469;47.998;7.794;2023-02-22T01:25:20;98848.75;;;5.24;100.00
53908;BME280;40469;47.998;7.794;2023-02-22T01:27:46;98847.88;;;5.25;100.00
53908;BME280;40469;47.998;7.794;2023-02-22T01:30:12;98844.38;;;5.20;100.00
53908;BME280;40469;47.998;7.794;2023-02-22T01:32:38;98840.81;;;5.09;100.00
53908;BME280;40469;47.998;7.794;2023-02-22T01:35:05;98844.31;;;5.12;100.00
53908;BME280;40469;47.998;7.794;2023-02-22T01:37:32;98837.38;;;5.10;100.00
53908;BME280;40469;47.998;7.794;2023-02-22T01:39:58;98843.31;;;4.98;100.00
53908;BME280;40469;47.998;7.794;2023-02-22T01:42:23;98838.19;;;5.06;100.00
53908;BME280;40469;47.998;7.794;2023-02-22T01:47:32;98830.34;;;4.95;100.00
53908;BME280;40469;47.998;7.794;2023-02-22T01:49:57;98833.66;;;4.85;100.00
53908;BME280;40469;47.998;7.794;2023-02-22T01:52:23;98838.81;;;4.83;100.00
53908;BME280;40469;47.998;7.794;2023-02-22T01:54:49;98829.28;;;4.78;100.00
53908;BME280;40469;47.998;7.794;2023-02-22T01:59:42;98826.63;;;4.70;100.00
53908;BME280;40469;47.998;7.794;2023-02-22T02:02:08;98826.53;;;4.64;100.00
53908;BME280;40469;47.998;7.794;2023-02-22T02:04:34;98829.91;;;4.58;100.00
53908;BME280;40469;47.998;7.794;2023-02-22T02:07:02;98830.75;;;4.54;100.00
53908;BME280;40469;47.998;7.794;2023-02-22T02:11:57;98828.00;;;4.42;100.00
53908;BME280;40469;47.998;7.794;2023-02-22T02:14:24;98831.06;;;4.14;100.00
53908;BME280;40469;47.998;7.794;2023-02-22T02:16:50;98824.03;;;4.03;100.00
53908;BME280;40469;47.998;7.794;2023-02-22T02:19:28;98822.34;;;4.05;100.00
53908;BME280;40469;47.998;7.794;2023-02-22T02:22:07;98823.09;;;3.97;100.00
53908;BME280;40469;47.998;7.794;2023-02-22T02:27:09;98830.06;;;4.03;100.00
53908;BME280;40469;47.998;7.794;2023-02-22T02:29:44;98825.75;;;4.04;100.00
53908;BME280;40469;47.998;7.794;2023-02-22T02:32:25;98821.44;;;4.01;100.00
53908;BME280;40469;47.998;7.794;2023-02-22T02:40:23;98809.31;;;3.98;100.00
53908;BME280;40469;47.998;7.794;2023-02-22T02:45:25;98801.72;;;4.08;100.00
53908;BME280;40469;47.998;7.794;2023-02-22T02:47:53;98800.72;;;3.98;100.00
53908;BME280;40469;47.998;7.794;2023-02-22T02:50:24;98798.88;;;3.89;100.00
53908;BME280;40469;47.998;7.794;2023-02-22T02:52:51;98800.63;;;3.90;100.00
53908;BME280;40469;47.998;7.794;2023-02-22T02:55:18;98797.97;;;3.86;100.00
53908;BME280;40469;47.998;7.794;2023-02-22T02:57:43;98788.59;;;3.92;100.00
53908;BME280;40469;47.998;7.794;2023-02-22T03:00:09;98793.69;;;3.88;100.00
53908;BME280;40469;47.998;7.794;2023-02-22T03:02:56;98792.81;;;3.87;100.00
53908;BME280;40469;47.998;7.794;2023-02-22T03:05:30;98781.69;;;3.91;100.00
53908;BME280;40469;47.998;7.794;2023-02-22T03:08:08;98784.25;;;3.88;100.00
53908;BME280;40469;47.998;7.794;2023-02-22T03:10:49;98788.47;;;3.83;100.00
53908;BME280;40469;47.998;7.794;2023-02-22T03:13:18;98782.47;;;3.86;100.00
53908;BME280;40469;47.998;7.794;2023-02-22T03:15:51;98772.16;;;3.87;100.00
53908;BME280;40469;47.998;7.794;2023-02-22T03:18:24;98780.75;;;3.88;100.00
53908;BME280;40469;47.998;7.794;2023-02-22T03:21:00;98779.06;;;3.87;100.00
53908;BME280;40469;47.998;7.794;2023-02-22T03:23:34;98777.25;;;3.83;100.00
53908;BME280;40469;47.998;7.794;2023-02-22T03:26:06;98771.31;;;3.87;100.00
53908;BME280;40469;47.998;7.794;2023-02-22T03:28:32;98766.22;;;3.93;100.00
53908;BME280;40469;47.998;7.794;2023-02-22T03:31:01;98771.56;;;4.07;100.00
53908;BME280;40469;47.998;7.794;2023-02-22T03:34:02;98763.00;;;4.11;100.00
53908;BME280;40469;47.998;7.794;2023-02-22T03:36:21;98767.38;;;4.15;100.00
53908;BME280;40469;47.998;7.794;2023-02-22T03:38:49;98765.72;;;4.20;100.00
53908;BME280;40469;47.998;7.794;2023-02-22T03:41:16;98758.84;;;4.25;100.00
53908;BME280;40469;47.998;7.794;2023-02-22T03:43:44;98769.25;;;4.30;100.00
53908;BME280;40469;47.998;7.794;2023-02-22T03:46:10;98758.13;;;4.32;100.00
53908;BME280;40469;47.998;7.794;2023-02-22T03:51:11;98767.59;;;4.35;100.00
53908;BME280;40469;47.998;7.794;2023-02-22T03:53:39;98760.69;;;4.34;100.00
53908;BME280;40469;47.998;7.794;2023-02-22T03:56:05;98755.53;;;4.32;100.00
53908;BME280;40469;47.998;7.794;2023-02-22T03:58:32;98762.38;;;4.32;100.00
53908;BME280;40469;47.998;7.794;2023-02-22T04:00:59;98762.38;;;4.32;100.00
53908;BME280;40469;47.998;7.794;2023-02-22T04:03:24;98762.38;;;4.32;100.00
53908;BME280;40469;47.998;7.794;2023-02-22T04:05:49;98761.56;;;4.34;100.00
53908;BME280;40469;47.998;7.794;2023-02-22T04:08:15;98758.13;;;4.35;100.00
53908;BME280;40469;47.998;7.794;2023-02-22T04:10:40;98765.09;;;4.40;100.00
53908;BME280;40469;47.998;7.794;2023-02-22T04:13:06;98754.72;;;4.38;100.00
53908;BME280;40469;47.998;7.794;2023-02-22T04:15:31;98745.31;;;4.43;100.00
53908;BME280;40469;47.998;7.794;2023-02-22T04:17:56;98753.94;;;4.45;100.00
53908;BME280;40469;47.998;7.794;2023-02-22T04:20:22;98753.16;;;4.52;100.00
53908;BME280;40469;47.998;7.794;2023-02-22T04:22:50;98748.78;;;4.47;100.00
53908;BME280;40469;47.998;7.794;2023-02-22T04:25:16;98752.22;;;4.47;100.00
53908;BME280;40469;47.998;7.794;2023-02-22T04:27:41;98747.06;;;4.47;100.00
53908;BME280;40469;47.998;7.794;2023-02-22T04:30:07;98745.38;;;4.51;100.00
53908;BME280;40469;47.998;7.794;2023-02-22T04:32:32;98748.00;;;4.52;100.00
53908;BME280;40469;47.998;7.794;2023-02-22T04:34:57;98741.13;;;4.56;100.00
53908;BME280;40469;47.998;7.794;2023-02-22T04:37:22;98740.28;;;4.60;100.00
53908;BME280;40469;47.998;7.794;2023-02-22T04:39:48;98749.00;;;4.67;100.00
53908;BME280;40469;47.998;7.794;2023-02-22T04:42:13;98741.28;;;4.71;100.00
53908;BME280;40469;47.998;7.794;2023-02-22T04:44:38;98737.81;;;4.69;100.00
53908;BME280;40469;47.998;7.794;2023-02-22T04:47:03;98744.75;;;4.73;100.00
53908;BME280;40469;47.998;7.794;2023-02-22T04:49:29;98737.03;;;4.77;100.00
53908;BME280;40469;47.998;7.794;2023-02-22T04:51:54;98737.09;;;4.84;100.00
53908;BME280;40469;47.998;7.794;2023-02-22T04:54:19;98743.22;;;4.92;100.00
53908;BME280;40469;47.998;7.794;2023-02-22T04:56:44;98742.41;;;4.98;100.00
53908;BME280;40469;47.998;7.794;2023-02-22T04:59:10;98739.84;;;5.00;100.00
53908;BME280;40469;47.998;7.794;2023-02-22T05:01:35;98734.75;;;5.10;100.00
53908;BME280;40469;47.998;7.794;2023-02-22T05:04:01;98736.53;;;5.19;100.00
53908;BME280;40469;47.998;7.794;2023-02-22T05:06:27;98734.84;;;5.23;100.00
53908;BME280;40469;47.998;7.794;2023-02-22T05:08:52;98729.66;;;5.21;100.00
53908;BME280;40469;47.998;7.794;2023-02-22T05:11:17;98727.06;;;5.20;100.00
53908;BME280;40469;47.998;7.794;2023-02-22T05:13:43;98724.44;;;5.18;100.00
53908;BME280;40469;47.998;7.794;2023-02-22T05:16:08;98731.34;;;5.16;100.00
53908;BME280;40469;47.998;7.794;2023-02-22T05:18:33;98725.28;;;5.14;100.00
53908;BME280;40469;47.998;7.794;2023-02-22T05:20:58;98728.69;;;5.10;100.00
53908;BME280;40469;47.998;7.794;2023-02-22T05:23:24;98727.00;;;5.10;100.00
53908;BME280;40469;47.998;7.794;2023-02-22T05:25:49;98729.50;;;5.04;100.00
53908;BME280;40469;47.998;7.794;2023-02-22T05:28:14;98730.41;;;5.08;100.00
53908;BME280;40469;47.998;7.794;2023-02-22T05:30:39;98728.59;;;4.99;100.00
53908;BME280;40469;47.998;7.794;2023-02-22T05:33:05;98730.97;;;4.76;100.00
53908;BME280;40469;47.998;7.794;2023-02-22T05:35:30;98734.19;;;4.50;100.00
53908;BME280;40469;47.998;7.794;2023-02-22T05:37:56;98732.34;;;4.40;100.00
53908;BME280;40469;47.998;7.794;2023-02-22T05:40:22;98737.28;;;4.20;100.00
53908;BME280;40469;47.998;7.794;2023-02-22T05:42:49;98730.09;;;3.96;100.00
53908;BME280;40469;47.998;7.794;2023-02-22T05:45:15;98727.47;;;3.33;100.00
53908;BME280;40469;47.998;7.794;2023-02-22T05:47:41;98740.63;;;2.94;100.00
53908;BME280;40469;47.998;7.794;2023-02-22T05:50:06;98738.63;;;2.77;100.00
53908;BME280;40469;47.998;7.794;2023-02-22T05:52:32;98736.72;;;2.67;100.00
53908;BME280;40469;47.998;7.794;2023-02-22T05:54:57;98734.97;;;2.66;100.00
53908;BME280;40469;47.998;7.794;2023-02-22T05:57:22;98744.22;;;2.55;100.00
53908;BME280;40469;47.998;7.794;2023-02-22T05:59:48;98742.44;;;2.52;100.00
53908;BME280;40469;47.998;7.794;2023-02-22T06:02:13;98740.72;;;2.51;100.00
53908;BME280;40469;47.998;7.794;2023-02-22T06:04:38;98739.16;;;2.61;100.00
53908;BME280;40469;47.998;7.794;2023-02-22T06:07:04;98733.13;;;2.59;100.00
53908;BME280;40469;47.998;7.794;2023-02-22T06:09:29;98737.66;;;2.72;100.00
53908;BME280;40469;47.998;7.794;2023-02-22T06:11:54;98739.34;;;2.70;100.00
53908;BME280;40469;47.998;7.794;2023-02-22T06:14:19;98737.72;;;2.74;100.00
53908;BME280;40469;47.998;7.794;2023-02-22T06:16:50;98741.94;;;2.70;100.00
53908;BME280;40469;47.998;7.794;2023-02-22T06:19:15;98744.50;;;2.70;100.00
53908;BME280;40469;47.998;7.794;2023-02-22T06:21:47;98744.50;;;2.72;100.00
53908;BME280;40469;47.998;7.794;2023-02-22T06:24:12;98746.16;;;2.68;100.00
53908;BME280;40469;47.998;7.794;2023-02-22T06:26:37;98742.78;;;2.71;100.00
53908;BME280;40469;47.998;7.794;2023-02-22T06:29:02;98746.31;;;2.76;100.00
53908;BME280;40469;47.998;7.794;2023-02-22T06:31:29;98748.97;;;2.79;100.00
53908;BME280;40469;47.998;7.794;2023-02-22T06:33:55;98755.13;;;2.89;100.00
53908;BME280;40469;47.998;7.794;2023-02-22T06:36:20;98761.22;;;2.92;100.00
53908;BME280;40469;47.998;7.794;2023-02-22T06:38:46;98746.75;;;3.00;100.00
53908;BME280;40469;47.998;7.794;2023-02-22T06:41:11;98756.06;;;2.92;100.00
53908;BME280;40469;47.998;7.794;2023-02-22T06:43:36;98757.75;;;2.90;100.00
53908;BME280;40469;47.998;7.794;2023-02-22T06:46:01;98756.22;;;3.01;100.00
53908;BME280;40469;47.998;7.794;2023-02-22T06:48:27;98761.69;;;3.20;100.00
53908;BME280;40469;47.998;7.794;2023-02-22T06:50:52;98748.00;;;3.26;100.00
53908;BME280;40469;47.998;7.794;2023-02-22T06:53:17;98755.84;;;3.32;100.00
53908;BME280;40469;47.998;7.794;2023-02-22T06:55:43;98752.53;;;3.40;100.00
53908;BME280;40469;47.998;7.794;2023-02-22T06:58:08;98752.66;;;3.47;100.00
53908;BME280;40469;47.998;7.794;2023-02-22T07:00:33;98757.94;;;3.56;100.00
53908;BME280;40469;47.998;7.794;2023-02-22T07:02:59;98758.94;;;3.64;100.00
53908;BME280;40469;47.998;7.794;2023-02-22T07:05:25;98760.72;;;3.70;100.00
53908;BME280;40469;47.998;7.794;2023-02-22T07:07:51;98761.75;;;3.83;100.00
53908;BME280;40469;47.998;7.794;2023-02-22T07:10:24;98753.38;;;3.97;100.00
53908;BME280;40469;47.998;7.794;2023-02-22T07:12:49;98758.59;;;4.04;100.00
53908;BME280;40469;47.998;7.794;2023-02-22T07:15:17;98758.72;;;4.13;100.00
53908;BME280;40469;47.998;7.794;2023-02-22T07:17:42;98757.16;;;4.26;100.00
53908;BME280;40469;47.998;7.794;2023-02-22T07:20:07;98747.81;;;4.39;100.00
53908;BME280;40469;47.998;7.794;2023-02-22T07:22:35;98754.06;;;4.56;100.00
53908;BME280;40469;47.998;7.794;2023-02-22T07:25:00;98753.31;;;4.68;100.00
53908;BME280;40469;47.998;7.794;2023-02-22T07:27:26;98754.31;;;4.81;100.00
53908;BME280;40469;47.998;7.794;2023-02-22T07:29:51;98752.72;;;4.95;100.00
53908;BME280;40469;47.998;7.794;2023-02-22T07:32:16;98749.50;;;5.19;100.00
53908;BME280;40469;47.998;7.794;2023-02-22T07:34:41;98744.44;;;5.33;100.00
53908;BME280;40469;47.998;7.794;2023-02-22T07:37:07;98741.91;;;5.42;100.00
53908;BME280;40469;47.998;7.794;2023-02-22T07:39:32;98748.88;;;5.56;100.00
53908;BME280;40469;47.998;7.794;2023-02-22T07:41:58;98742.91;;;5.67;100.00
53908;BME280;40469;47.998;7.794;2023-02-22T07:44:23;98744.75;;;5.81;100.00
53908;BME280;40469;47.998;7.794;2023-02-22T07:46:49;98742.22;;;5.92;100.00
53908;BME280;40469;47.998;7.794;2023-02-22T07:49:14;98746.59;;;6.05;100.00
53908;BME280;40469;47.998;7.794;2023-02-22T07:51:39;98744.06;;;6.19;100.00
53908;BME280;40469;47.998;7.794;2023-02-22T07:54:05;98738.97;;;6.33;100.00
53908;BME280;40469;47.998;7.794;2023-02-22T07:56:30;98741.59;;;6.45;100.00
53908;BME280;40469;47.998;7.794;2023-02-22T07:58:55;98736.44;;;6.63;100.00
53908;BME280;40469;47.998;7.794;2023-02-22T08:01:20;98729.56;;;6.76;100.00
53908;BME280;40469;47.998;7.794;2023-02-22T08:03:46;98731.31;;;6.96;100.00
53908;BME280;40469;47.998;7.794;2023-02-22T08:06:11;98725.28;;;7.08;100.00
53908;BME280;40469;47.998;7.794;2023-02-22T08:08:37;98728.72;;;7.20;100.00
53908;BME280;40469;47.998;7.794;2023-02-22T08:11:02;98732.19;;;7.29;100.00
53908;BME280;40469;47.998;7.794;2023-02-22T08:13:28;98727.84;;;7.32;100.00
53908;BME280;40469;47.998;7.794;2023-02-22T08:15:53;98731.31;;;7.40;100.00
53908;BME280;40469;47.998;7.794;2023-02-22T08:18:19;98728.72;;;7.47;100.00
53908;BME280;40469;47.998;7.794;2023-02-22T08:20:45;98728.69;;;7.56;100.00
53908;BME280;40469;47.998;7.794;2023-02-22T08:23:12;98732.16;;;7.63;100.00
53908;BME280;40469;47.998;7.794;2023-02-22T08:25:37;98733.00;;;7.77;100.00
53908;BME280;40469;47.998;7.794;2023-02-22T08:28:22;98728.63;;;7.90;100.00
53908;BME280;40469;47.998;7.794;2023-02-22T08:30:47;98728.59;;;7.99;100.00
53908;BME280;40469;47.998;7.794;2023-02-22T08:33:14;98729.44;;;8.12;100.00
53908;BME280;40469;47.998;7.794;2023-02-22T08:35:40;98735.44;;;8.20;100.00
53908;BME280;40469;47.998;7.794;2023-02-22T08:38:06;98729.34;;;8.32;100.00
53908;BME280;40469;47.998;7.794;2023-02-22T08:40:33;98729.31;;;8.46;100.00
53908;BME280;40469;47.998;7.794;2023-02-22T08:42:59;98734.47;;;8.53;100.00
53908;BME280;40469;47.998;7.794;2023-02-22T08:45:25;98737.97;;;8.51;100.00
53908;BME280;40469;47.998;7.794;2023-02-22T08:47:50;98731.88;;;8.41;100.00
53908;BME280;40469;47.998;7.794;2023-02-22T08:52:44;98729.31;;;8.43;100.00
53908;BME280;40469;47.998;7.794;2023-02-22T08:55:09;98723.06;;;8.75;100.00
53908;BME280;40469;47.998;7.794;2023-02-22T08:57:34;98729.88;;;8.92;100.00
53908;BME280;40469;47.998;7.794;2023-02-22T08:59:59;98726.22;;;9.18;100.00
53908;BME280;40469;47.998;7.794;2023-02-22T09:02:25;98723.47;;;9.35;100.00
53908;BME280;40469;47.998;7.794;2023-02-22T09:04:50;98727.69;;;9.48;100.00
53908;BME280;40469;47.998;7.794;2023-02-22T09:07:16;98715.47;;;9.57;100.00
53908;BME280;40469;47.998;7.794;2023-02-22T09:09:41;98724.88;;;9.70;100.00
53908;BME280;40469;47.998;7.794;2023-02-22T09:12:07;98725.47;;;9.97;100.00
53908;BME280;40469;47.998;7.794;2023-02-22T09:14:32;98721.00;;;10.10;100.00
53908;BME280;40469;47.998;7.794;2023-02-22T09:16:58;98726.97;;;10.18;100.00
53908;BME280;40469;47.998;7.794;2023-02-22T09:19:23;98716.00;;;10.61;100.00
53908;BME280;40469;47.998;7.794;2023-02-22T09:21:52;98711.22;;;10.91;100.00
53908;BME280;40469;47.998;7.794;2023-02-22T09:24:17;98714.00;;;11.33;100.00
53908;BME280;40469;47.998;7.794;2023-02-22T09:26:45;98712.41;;;11.75;100.00
53908;BME280;40469;47.998;7.794;2023-02-22T09:29:11;98712.09;;;11.94;100.00
53908;BME280;40469;47.998;7.794;2023-02-22T09:31:37;98709.19;;;12.08;100.00
53908;BME280;40469;47.998;7.794;2023-02-22T09:34:06;98708.25;;;12.10;100.00
53908;BME280;40469;47.998;7.794;2023-02-22T09:36:38;98710.81;;;12.15;100.00
53908;BME280;40469;47.998;7.794;2023-02-22T09:39:03;98710.28;;;12.40;100.00
53908;BME280;40469;47.998;7.794;2023-02-22T09:41:31;98713.09;;;12.32;100.00
53908;BME280;40469;47.998;7.794;2023-02-22T09:46:32;98705.09;;;12.37;100.00
53908;BME280;40469;47.998;7.794;2023-02-22T09:49:10;98709.81;;;12.61;100.00
53908;BME280;40469;47.998;7.794;2023-02-22T09:51:39;98707.88;;;12.71;100.00
53908;BME280;40469;47.998;7.794;2023-02-22T09:54:09;98713.56;;;12.90;100.00
53908;BME280;40469;47.998;7.794;2023-02-22T09:56:38;98712.84;;;12.82;100.00
53908;BME280;40469;47.998;7.794;2023-02-22T09:59:05;98709.16;;;12.53;100.00
53908;BME280;40469;47.998;7.794;2023-02-22T10:04:10;98710.75;;;12.59;100.00
53908;BME280;40469;47.998;7.794;2023-02-22T10:06:43;98701.34;;;12.50;100.00
53908;BME280;40469;47.998;7.794;2023-02-22T10:09:16;98700.59;;;12.45;100.00
53908;BME280;40469;47.998;7.794;2023-02-22T10:11:47;98702.88;;;12.60;100.00
53908;BME280;40469;47.998;7.794;2023-02-22T10:16:42;98696.28;;;12.81;100.00
53908;BME280;40469;47.998;7.794;2023-02-22T10:21:52;98707.59;;;13.55;100.00
53908;BME280;40469;47.998;7.794;2023-02-22T10:27:06;98690.34;;;13.11;100.00
53908;BME280;40469;47.998;7.794;2023-02-22T10:31:58;98701.06;;;13.72;100.00
53908;BME280;40469;47.998;7.794;2023-02-22T10:34:26;98697.59;;;13.71;100.00
53908;BME280;40469;47.998;7.794;2023-02-22T10:36:59;98688.09;;;13.33;100.00
53908;BME280;40469;47.998;7.794;2023-02-22T10:39:32;98687.06;;;13.38;100.00
53908;BME280;40469;47.998;7.794;2023-02-22T10:42:00;98701.63;;;13.13;100.00
53908;BME280;40469;47.998;7.794;2023-02-22T10:44:30;98691.63;;;12.94;100.00
53908;BME280;40469;47.998;7.794;2023-02-22T10:46:56;98684.81;;;12.85;100.00
53908;BME280;40469;47.998;7.794;2023-02-22T10:49:23;98683.41;;;13.08;100.00
53908;BME280;40469;47.998;7.794;2023-02-22T10:51:56;98691.72;;;13.25;100.00
53908;BME280;40469;47.998;7.794;2023-02-22T10:54:24;98685.00;;;13.15;100.00
53908;BME280;40469;47.998;7.794;2023-02-22T10:56:51;98696.06;;;13.62;100.00
53908;BME280;40469;47.998;7.794;2023-02-22T11:02:17;98679.28;;;13.68;100.00
53908;BME280;40469;47.998;7.794;2023-02-22T11:04:50;98678.91;;;13.15;100.00
53908;BME280;40469;47.998;7.794;2023-02-22T11:07:20;98687.06;;;13.38;100.00
53908;BME280;40469;47.998;7.794;2023-02-22T11:09:51;98687.56;;;13.17;100.00
53908;BME280;40469;47.998;7.794;2023-02-22T11:12:18;98684.84;;;12.84;100.00
53908;BME280;40469;47.998;7.794;2023-02-22T11:14:43;98677.72;;;12.90;100.00
53908;BME280;40469;47.998;7.794;2023-02-22T11:17:08;98677.66;;;12.94;100.00
53908;BME280;40469;47.998;7.794;2023-02-22T11:19:37;98679.81;;;13.12;100.00
53908;BME280;40469;47.998;7.794;2023-02-22T11:22:12;98676.81;;;13.27;100.00
53908;BME280;40469;47.998;7.794;2023-02-22T11:24:46;98680.16;;;12.98;100.00
53908;BME280;40469;47.998;7.794;2023-02-22T11:27:22;98666.38;;;12.90;100.00
53908;BME280;40469;47.998;7.794;2023-02-22T11:29:49;98665.94;;;13.08;100.00
53908;BME280;40469;47.998;7.794;2023-02-22T11:32:17;98662.94;;;12.86;100.00
53908;BME280;40469;47.998;7.794;2023-02-22T11:34:47;98661.97;;;12.92;100.00
53908;BME280;40469;47.998;7.794;2023-02-22T11:40:04;98664.53;;;12.56;100.00
53908;BME280;40469;47.998;7.794;2023-02-22T11:42:30;98665.81;;;12.38;100.00
53908;BME280;40469;47.998;7.794;2023-02-22T11:47:47;98657.88;;;12.43;100.00
53908;BME280;40469;47.998;7.794;2023-02-22T11:50:19;98664.31;;;12.26;100.00
53908;BME280;40469;47.998;7.794;2023-02-22T11:52:46;98657.38;;;12.25;100.00
53908;BME280;40469;47.998;7.794;2023-02-22T12:06:10;98650.94;;;12.40;100.00
53908;BME280;40469;47.998;7.794;2023-02-22T12:11:33;98651.75;;;12.42;100.00
53908;BME280;40469;47.998;7.794;2023-02-22T12:16:42;98656.94;;;12.44;100.00
53908;BME280;40469;47.998;7.794;2023-02-22T12:21:47;98644.28;;;12.25;100.00
53908;BME280;40469;47.998;7.794;2023-02-22T12:24:17;98650.00;;;12.43;100.00
53908;BME280;40469;47.998;7.794;2023-02-22T12:26:49;98650.84;;;12.45;100.00
53908;BME280;40469;47.998;7.794;2023-02-22T12:29:23;98645.59;;;12.45;100.00
53908;BME280;40469;47.998;7.794;2023-02-22T12:31:59;98644.75;;;12.44;100.00
53908;BME280;40469;47.998;7.794;2023-02-22T12:36:54;98652.25;;;12.19;100.00
53908;BME280;40469;47.998;7.794;2023-02-22T12:41:55;98653.97;;;12.22;100.00
53908;BME280;40469;47.998;7.794;2023-02-22T12:44:26;98663.44;;;12.27;100.00
53908;BME280;40469;47.998;7.794;2023-02-22T12:46:54;98649.72;;;12.16;100.00
53908;BME280;40469;47.998;7.794;2023-02-22T12:49:39;98647.94;;;12.18;100.00
53908;BME280;40469;47.998;7.794;2023-02-22T12:52:12;98653.47;;;12.43;100.00
53908;BME280;40469;47.998;7.794;2023-02-22T12:54:45;98648.94;;;12.51;100.00
53908;BME280;40469;47.998;7.794;2023-02-22T12:59:42;98644.59;;;12.50;100.00
53908;BME280;40469;47.998;7.794;2023-02-22T13:04:35;98637.75;;;12.45;100.00
53908;BME280;40469;47.998;7.794;2023-02-22T13:07:09;98641.09;;;12.51;100.00
53908;BME280;40469;47.998;7.794;2023-02-22T13:09:45;98648.91;;;12.53;100.00
53908;BME280;40469;47.998;7.794;2023-02-22T13:12:34;98641.41;;;12.38;100.00
53908;BME280;40469;47.998;7.794;2023-02-22T13:15:18;98644.63;;;12.49;100.00
53908;BME280;40469;47.998;7.794;2023-02-22T13:20:51;98636.13;;;12.39;100.00
53908;BME280;40469;47.998;7.794;2023-02-22T13:54:14;98633.28;;;12.48;100.00
53908;BME280;40469;47.998;7.794;2023-02-22T13:56:45;98627.31;;;12.43;100.00
53908;BME280;40469;47.998;7.794;2023-02-22T14:01:48;98635.56;;;12.64;100.00
53908;BME280;40469;47.998;7.794;2023-02-22T14:06:51;98622.91;;;12.44;100.00
53908;BME280;40469;47.998;7.794;2023-02-22T14:09:39;98629.22;;;12.35;100.00
53908;BME280;40469;47.998;7.794;2023-02-22T14:12:01;98631.72;;;12.41;100.00
53908;BME280;40469;47.998;7.794;2023-02-22T14:14:27;98625.75;;;12.35;100.00
53908;BME280;40469;47.998;7.794;2023-02-22T14:19:59;98633.25;;;12.50;100.00
53908;BME280;40469;47.998;7.794;2023-02-22T14:22:28;98624.47;;;12.52;100.00
53908;BME280;40469;47.998;7.794;2023-02-22T14:24:53;98623.78;;;12.44;100.00
53908;BME280;40469;47.998;7.794;2023-02-22T14:27:19;98618.91;;;12.29;100.00
53908;BME280;40469;47.998;7.794;2023-02-22T14:32:17;98634.25;;;12.46;100.00
53908;BME280;40469;47.998;7.794;2023-02-22T14:34:57;98623.03;;;12.39;100.00
53908;BME280;40469;47.998;7.794;2023-02-22T14:37:34;98622.81;;;12.48;100.00
53908;BME280;40469;47.998;7.794;2023-02-22T14:40:05;98620.09;;;12.53;100.00
53908;BME280;40469;47.998;7.794;2023-02-22T14:42:49;98628.03;;;12.50;100.00
53908;BME280;40469;47.998;7.794;2023-02-22T14:45:19;98622.06;;;12.43;100.00
53908;BME280;40469;47.998;7.794;2023-02-22T14:53:10;98630.13;;;12.34;100.00
53908;BME280;40469;47.998;7.794;2023-02-22T14:55:42;98630.94;;;12.36;100.00
53908;BME280;40469;47.998;7.794;2023-02-22T14:58:23;98629.09;;;12.41;100.00
53908;BME280;40469;47.998;7.794;2023-02-22T15:00:50;98635.25;;;12.39;100.00
53908;BME280;40469;47.998;7.794;2023-02-22T15:05:46;98632.59;;;12.40;100.00
53908;BME280;40469;47.998;7.794;2023-02-22T15:08:11;98639.91;;;12.26;100.00